Altoona, Iowa
Current Conditions -  °F | °C
As of 8:35 AM on Wednesday 22 Oct 2014 (Local Time) from KIKV Reporting Station
Scattered Clouds Scattered Clouds  
Wind Chill: 40°   Ceiling: Unl
Heat Index: 45°   Visibility: 10mi
Dew Point: 41°   Wind: 9mph
Humidity: 87%   Direction: 140°SE
Pressure: 30.24"   Gusts: 16mph
Location:  41.64°N, 93.46°W
Report Text: KIKV 221335Z AUTO 14008G14KT 10SM SCT050 07/05 A3024 RMK AO2
Loading
Personal Weather Stations






























Interactive Weather Map New forecast layout! Learn more

10-Day Weather Forecast

Advertisements
Track Severe Weather on mobile